Time;durP1;ratioP1;P1;durP2;ratioP2;P2;SDS_P1;SDS_P2;PMS_P1;PMS_P2;Temp;Humidity;BMP_temperature;BMP_pressure;BME280_temperature;BME280_humidity;BME280_pressure;Samples;Min_cycle;Max_cycle;Signal;HPM_P1;HPM_P2
2021/06/16 00:00:28;;;;;;;;;;;19.40;78.80;;;;;;5023387;28;20327;-65
2021/06/16 00:02:58;;;;;;;;;;;19.40;79.30;;;;;;5033195;28;19929;-65
2021/06/16 00:05:30;;;;;;;;;;;19.40;79.00;;;;;;5038690;28;19936;-65
2021/06/16 00:07:58;;;;;;;;;;;19.40;79.20;;;;;;5034967;28;19972;-64
2021/06/16 00:10:27;;;;;;;;;;;19.30;79.30;;;;;;5030953;28;19979;-65
2021/06/16 00:12:54;;;;;;;;;;;19.40;79.00;;;;;;5036519;28;19929;-66
2021/06/16 00:15:22;;;;;;;;;;;19.30;79.60;;;;;;5031259;28;19936;-65
2021/06/16 00:17:51;;;;;;;;;;;19.30;79.80;;;;;;5029094;28;19921;-65
2021/06/16 00:20:18;;;;;;;;;;;19.30;79.00;;;;;;5028936;28;20004;-65
2021/06/16 00:22:48;;;;;;;;;;;19.30;79.50;;;;;;5029398;28;20094;-65
2021/06/16 00:25:16;;;;;;;;;;;19.30;79.40;;;;;;5034216;28;19933;-65
2021/06/16 00:27:43;;;;;;;;;;;19.40;79.30;;;;;;5030578;28;19929;-65
2021/06/16 00:30:11;;;;;;;;;;;19.40;79.20;;;;;;5047973;28;19990;-65
2021/06/16 00:32:38;;;;;;;;;;;19.40;79.20;;;;;;5045364;28;20264;-64
2021/06/16 00:35:08;;;;;;;;;;;19.30;79.40;;;;;;5030587;28;19933;-65
2021/06/16 00:37:38;;;;;;;;;;;19.30;79.50;;;;;;5031708;28;20153;-65
2021/06/16 00:40:10;;;;;;;;;;;19.20;79.90;;;;;;5036855;28;19944;-64
2021/06/16 00:42:37;;;;;;;;;;;19.10;80.30;;;;;;5027764;28;19929;-64
2021/06/16 00:45:05;;;;;;;;;;;19.10;80.30;;;;;;5025066;28;19929;-65
2021/06/16 00:47:32;;;;;;;;;;;19.00;80.50;;;;;;5031600;28;20120;-65
2021/06/16 00:50:01;;;;;;;;;;;19.00;80.60;;;;;;5026627;28;19940;-64
2021/06/16 00:52:32;;;;;;;;;;;19.00;80.60;;;;;;5028326;28;20835;-65
2021/06/16 00:54:59;;;;;;;;;;;19.00;80.60;;;;;;5034712;28;19975;-65
2021/06/16 00:57:26;;;;;;;;;;;19.00;80.60;;;;;;5063451;28;19929;-64
2021/06/16 00:59:57;;;;;;;;;;;19.00;80.40;;;;;;5028193;28;19921;-65
2021/06/16 01:02:24;;;;;;;;;;;18.90;80.80;;;;;;5026469;28;19980;-65
2021/06/16 01:04:52;;;;;;;;;;;18.80;80.90;;;;;;5031516;28;19936;-65
2021/06/16 01:07:23;;;;;;;;;;;18.80;81.20;;;;;;5031745;28;19996;-65
2021/06/16 01:09:57;;;;;;;;;;;18.70;81.30;;;;;;5031107;28;19921;-65
2021/06/16 01:12:27;;;;;;;;;;;18.70;81.50;;;;;;5032474;28;20243;-65
2021/06/16 01:14:57;;;;;;;;;;;18.60;81.70;;;;;;5029650;28;20001;-66
2021/06/16 01:17:29;;;;;;;;;;;18.60;82.00;;;;;;5033652;28;19921;-65
2021/06/16 01:20:07;;;;;;;;;;;18.60;82.00;;;;;;5032123;28;19944;-65
2021/06/16 01:22:38;;;;;;;;;;;18.60;82.00;;;;;;5032229;28;19936;-64
2021/06/16 01:25:08;;;;;;;;;;;18.60;82.00;;;;;;5034592;28;19929;-64
2021/06/16 01:27:37;;;;;;;;;;;18.50;82.40;;;;;;5031516;28;19968;-64
2021/06/16 01:30:10;;;;;;;;;;;18.50;81.70;;;;;;5028066;28;20021;-64
2021/06/16 01:32:37;;;;;;;;;;;18.40;81.80;;;;;;5033797;28;19975;-65
2021/06/16 01:35:05;;;;;;;;;;;18.30;82.00;;;;;;5056359;28;20110;-65
2021/06/16 01:37:32;;;;;;;;;;;18.40;81.60;;;;;;5033603;28;19960;-65
2021/06/16 01:39:59;;;;;;;;;;;18.50;82.10;;;;;;5034003;28;19929;-65
2021/06/16 01:42:28;;;;;;;;;;;18.50;82.10;;;;;;5029137;28;19967;-64
2021/06/16 01:44:56;;;;;;;;;;;18.50;81.90;;;;;;5027995;28;20256;-65
2021/06/16 01:47:24;;;;;;;;;;;18.60;81.90;;;;;;5033974;28;19929;-65
2021/06/16 01:49:53;;;;;;;;;;;18.50;82.00;;;;;;5030934;28;21070;-65
2021/06/16 01:52:21;;;;;;;;;;;18.40;82.20;;;;;;5033320;28;19929;-65
2021/06/16 01:54:49;;;;;;;;;;;18.40;82.50;;;;;;5032383;28;19933;-65
2021/06/16 01:57:17;;;;;;;;;;;18.30;82.40;;;;;;5034061;28;19927;-65
2021/06/16 01:59:44;;;;;;;;;;;18.30;82.60;;;;;;5032545;28;19940;-65
2021/06/16 02:02:13;;;;;;;;;;;18.30;82.80;;;;;;5027821;28;19949;-65
2021/06/16 02:04:40;;;;;;;;;;;18.20;82.90;;;;;;5030692;28;19921;-65
2021/06/16 02:07:10;;;;;;;;;;;18.20;82.90;;;;;;5031674;28;19921;-66
2021/06/16 02:09:38;;;;;;;;;;;18.10;83.00;;;;;;5034123;28;19929;-65
2021/06/16 02:12:09;;;;;;;;;;;18.10;82.60;;;;;;5031244;28;19929;-66
2021/06/16 02:14:37;;;;;;;;;;;18.00;82.60;;;;;;5069384;28;19951;-65
2021/06/16 02:17:08;;;;;;;;;;;18.00;83.10;;;;;;5033425;28;19921;-65
2021/06/16 02:19:37;;;;;;;;;;;18.00;83.30;;;;;;5032226;28;19960;-65
2021/06/16 02:22:07;;;;;;;;;;;18.00;83.20;;;;;;5049731;28;19952;-65
2021/06/16 02:24:34;;;;;;;;;;;18.10;83.00;;;;;;5025617;28;19929;-65
2021/06/16 02:27:04;;;;;;;;;;;18.00;83.20;;;;;;5032470;28;19964;-65
2021/06/16 02:29:31;;;;;;;;;;;18.10;83.10;;;;;;5031492;28;19928;-65
2021/06/16 02:31:59;;;;;;;;;;;18.10;82.80;;;;;;5031186;28;19973;-65
2021/06/16 02:34:28;;;;;;;;;;;18.00;83.00;;;;;;5028307;28;20261;-65
2021/06/16 02:36:58;;;;;;;;;;;18.00;82.90;;;;;;5032310;28;20228;-65
2021/06/16 02:39:31;;;;;;;;;;;18.00;82.90;;;;;;5030019;28;19928;-65
2021/06/16 02:41:59;;;;;;;;;;;18.00;83.00;;;;;;5033196;28;19933;-65
2021/06/16 02:44:27;;;;;;;;;;;17.90;83.10;;;;;;5031295;28;19929;-65
2021/06/16 02:46:55;;;;;;;;;;;17.90;83.20;;;;;;5030641;28;19925;-65
2021/06/16 02:49:23;;;;;;;;;;;17.90;83.20;;;;;;5035039;28;20022;-65
2021/06/16 02:51:51;;;;;;;;;;;17.90;83.20;;;;;;5026065;28;19965;-65
2021/06/16 02:54:20;;;;;;;;;;;17.90;83.30;;;;;;5050401;28;20152;-65
2021/06/16 02:56:47;;;;;;;;;;;17.90;83.30;;;;;;5030613;28;19929;-65
2021/06/16 02:59:15;;;;;;;;;;;17.90;83.20;;;;;;5031114;28;20008;-64
2021/06/16 03:01:44;;;;;;;;;;;17.90;83.20;;;;;;5023520;28;19936;-65
2021/06/16 03:04:12;;;;;;;;;;;17.90;83.30;;;;;;5029106;28;20235;-65
2021/06/16 03:06:43;;;;;;;;;;;17.80;83.50;;;;;;5031137;28;20524;-65
2021/06/16 03:09:11;;;;;;;;;;;17.70;83.70;;;;;;5031590;28;19996;-65
2021/06/16 03:11:40;;;;;;;;;;;17.70;83.80;;;;;;5064372;28;19961;-65
2021/06/16 03:14:07;;;;;;;;;;;17.80;83.60;;;;;;5033284;28;19997;-65
2021/06/16 03:16:35;;;;;;;;;;;17.70;83.80;;;;;;5032474;28;19984;-65
2021/06/16 03:19:05;;;;;;;;;;;17.80;83.60;;;;;;5032933;28;19971;-64
2021/06/16 03:21:34;;;;;;;;;;;17.80;83.60;;;;;;5030390;28;19933;-65
2021/06/16 03:24:01;;;;;;;;;;;17.90;83.40;;;;;;5027255;28;19928;-65
2021/06/16 03:26:30;;;;;;;;;;;17.90;83.30;;;;;;5032429;28;19979;-64
2021/06/16 03:29:02;;;;;;;;;;;17.90;83.20;;;;;;5029041;28;19960;-65
2021/06/16 03:31:31;;;;;;;;;;;17.90;83.30;;;;;;5048404;28;20275;-65
2021/06/16 03:33:58;;;;;;;;;;;17.90;83.30;;;;;;5027591;28;19933;-66
2021/06/16 03:36:25;;;;;;;;;;;17.90;83.40;;;;;;5032407;28;19921;-66
2021/06/16 03:38:52;;;;;;;;;;;17.90;83.40;;;;;;5033517;28;19944;-64
2021/06/16 03:41:20;;;;;;;;;;;17.90;83.30;;;;;;5032543;28;19921;-65
2021/06/16 03:43:48;;;;;;;;;;;17.90;83.30;;;;;;5032865;28;20126;-65
2021/06/16 03:46:18;;;;;;;;;;;17.90;83.20;;;;;;5031457;28;20002;-65
2021/06/16 03:48:45;;;;;;;;;;;17.90;83.30;;;;;;5029061;28;20000;-65
2021/06/16 03:51:12;;;;;;;;;;;17.90;83.40;;;;;;5030637;28;19929;-64
2021/06/16 03:53:39;;;;;;;;;;;17.90;83.40;;;;;;5033908;28;20013;-65
2021/06/16 03:56:08;;;;;;;;;;;17.90;83.40;;;;;;5035699;28;20160;-65
2021/06/16 03:58:36;;;;;;;;;;;17.90;83.40;;;;;;5032714;28;19935;-64
2021/06/16 04:01:06;;;;;;;;;;;18.00;83.20;;;;;;5029330;28;19929;-65
2021/06/16 04:03:35;;;;;;;;;;;18.00;83.10;;;;;;5062947;28;20023;-65
2021/06/16 04:06:05;;;;;;;;;;;18.10;82.90;;;;;;5032894;28;19929;-65
2021/06/16 04:08:32;;;;;;;;;;;18.10;82.80;;;;;;5032543;28;19928;-66
2021/06/16 04:10:59;;;;;;;;;;;18.10;82.60;;;;;;5027582;28;19936;-65
2021/06/16 04:13:26;;;;;;;;;;;18.10;82.60;;;;;;5030658;28;19929;-65
2021/06/16 04:15:55;;;;;;;;;;;18.10;82.60;;;;;;5029109;28;19921;-66
2021/06/16 04:18:23;;;;;;;;;;;18.10;82.50;;;;;;5029683;28;19929;-65
2021/06/16 04:20:51;;;;;;;;;;;18.10;82.40;;;;;;5027938;28;20169;-66
2021/06/16 04:23:18;;;;;;;;;;;18.20;82.30;;;;;;5022407;28;20243;-65
2021/06/16 04:25:45;;;;;;;;;;;18.20;82.20;;;;;;5026990;28;20023;-65
2021/06/16 04:28:16;;;;;;;;;;;18.20;82.00;;;;;;5031571;28;20239;-64
2021/06/16 04:30:43;;;;;;;;;;;18.30;81.80;;;;;;5033176;28;19975;-65
2021/06/16 04:33:12;;;;;;;;;;;18.40;81.50;;;;;;5030223;28;20197;-65
2021/06/16 04:35:42;;;;;;;;;;;18.50;81.20;;;;;;5032512;28;19928;-64
2021/06/16 04:38:10;;;;;;;;;;;18.60;80.90;;;;;;5031943;28;19921;-65
2021/06/16 04:40:38;;;;;;;;;;;18.60;80.70;;;;;;5027895;28;19967;-65
2021/06/16 04:43:05;;;;;;;;;;;18.60;80.60;;;;;;5029719;28;19929;-66
2021/06/16 04:45:32;;;;;;;;;;;18.70;80.30;;;;;;5032037;28;19933;-64
2021/06/16 04:48:01;;;;;;;;;;;18.70;80.10;;;;;;5022463;28;19936;-66
2021/06/16 04:50:30;;;;;;;;;;;18.80;79.90;;;;;;5029078;28;19952;-64
2021/06/16 04:52:57;;;;;;;;;;;18.90;79.50;;;;;;5029546;28;19944;-66
2021/06/16 04:55:25;;;;;;;;;;;19.00;79.30;;;;;;5023969;28;19921;-64
2021/06/16 04:57:52;;;;;;;;;;;19.00;79.20;;;;;;5033594;28;19929;-66
2021/06/16 05:00:22;;;;;;;;;;;19.10;79.10;;;;;;5026629;28;20007;-64
2021/06/16 05:02:59;;;;;;;;;;;19.10;79.00;;;;;;5065449;28;19929;-65
2021/06/16 05:05:27;;;;;;;;;;;19.20;78.80;;;;;;5037810;28;19936;-66
2021/06/16 05:07:55;;;;;;;;;;;19.20;78.70;;;;;;5012845;28;20004;-65
2021/06/16 05:10:22;;;;;;;;;;;19.30;78.60;;;;;;5031655;28;20226;-65
2021/06/16 05:12:55;;;;;;;;;;;19.30;78.40;;;;;;5031197;28;19929;-65
2021/06/16 05:15:22;;;;;;;;;;;19.40;78.10;;;;;;5027705;28;20268;-65
2021/06/16 05:17:50;;;;;;;;;;;19.60;77.70;;;;;;5030495;28;20000;-65
2021/06/16 05:20:17;;;;;;;;;;;19.60;77.40;;;;;;5027705;28;19936;-65
2021/06/16 05:22:48;;;;;;;;;;;19.70;76.80;;;;;;5029413;28;19975;-65
2021/06/16 05:25:16;;;;;;;;;;;19.80;76.20;;;;;;5024536;28;19929;-65
2021/06/16 05:27:43;;;;;;;;;;;19.90;75.80;;;;;;5036181;28;20272;-65
2021/06/16 05:30:13;;;;;;;;;;;20.00;75.60;;;;;;5032180;28;19929;-65
2021/06/16 05:32:40;;;;;;;;;;;20.10;75.40;;;;;;5028102;28;20157;-64
2021/06/16 05:35:08;;;;;;;;;;;20.10;75.20;;;;;;5028409;28;20358;-63
2021/06/16 05:37:36;;;;;;;;;;;20.20;74.90;;;;;;5035488;28;19988;-64
2021/06/16 05:40:06;;;;;;;;;;;20.40;74.50;;;;;;5031851;28;20000;-64
2021/06/16 05:42:33;;;;;;;;;;;20.40;74.50;;;;;;5030450;28;19929;-65
2021/06/16 05:45:00;;;;;;;;;;;20.40;74.10;;;;;;5030866;28;20000;-65
2021/06/16 05:47:32;;;;;;;;;;;20.40;74.00;;;;;;5032781;28;19992;-64
2021/06/16 05:50:03;;;;;;;;;;;20.60;73.50;;;;;;5046567;28;19925;-64
2021/06/16 05:52:31;;;;;;;;;;;20.60;73.20;;;;;;5021787;28;19968;-64
2021/06/16 05:54:58;;;;;;;;;;;20.70;72.90;;;;;;5026473;28;19921;-65
2021/06/16 05:57:25;;;;;;;;;;;20.90;72.40;;;;;;5028410;28;20000;-65
2021/06/16 05:59:52;;;;;;;;;;;21.00;71.80;;;;;;5030032;28;19964;-64
2021/06/16 06:02:19;;;;;;;;;;;21.10;71.40;;;;;;5023700;28;19956;-66
2021/06/16 06:04:48;;;;;;;;;;;21.20;71.30;;;;;;5032676;28;20240;-65
2021/06/16 06:07:16;;;;;;;;;;;21.20;71.50;;;;;;5028381;28;20273;-65
2021/06/16 06:09:43;;;;;;;;;;;21.20;71.30;;;;;;5030988;28;19971;-66
2021/06/16 06:12:10;;;;;;;;;;;21.40;71.30;;;;;;5029878;28;19964;-65
2021/06/16 06:14:37;;;;;;;;;;;21.60;69.90;;;;;;5033001;28;20221;-65
2021/06/16 06:17:05;;;;;;;;;;;21.70;69.30;;;;;;5033567;28;20224;-65
2021/06/16 06:19:32;;;;;;;;;;;21.80;69.70;;;;;;5032086;28;20219;-65
2021/06/16 06:22:05;;;;;;;;;;;21.90;69.10;;;;;;5030210;28;19929;-64
2021/06/16 06:24:35;;;;;;;;;;;22.00;68.80;;;;;;5028599;28;20168;-66
2021/06/16 06:27:03;;;;;;;;;;;22.10;68.90;;;;;;5029117;28;20315;-64
2021/06/16 06:29:30;;;;;;;;;;;22.20;67.60;;;;;;5036239;28;20023;-66
2021/06/16 06:31:57;;;;;;;;;;;22.30;66.70;;;;;;5032633;28;20129;-66
2021/06/16 06:34:24;;;;;;;;;;;22.50;67.60;;;;;;5032794;28;19939;-66
2021/06/16 06:36:51;;;;;;;;;;;22.60;66.10;;;;;;5065795;28;19925;-66
2021/06/16 06:39:20;;;;;;;;;;;22.60;66.50;;;;;;5032090;28;19936;-65
2021/06/16 06:41:47;;;;;;;;;;;22.70;65.80;;;;;;5033723;28;19930;-65
2021/06/16 06:44:14;;;;;;;;;;;22.80;66.30;;;;;;5036138;28;19933;-65
2021/06/16 06:46:41;;;;;;;;;;;22.90;66.20;;;;;;5035609;28;19933;-65
2021/06/16 06:49:09;;;;;;;;;;;23.00;65.90;;;;;;5033281;28;19956;-65
2021/06/16 06:51:37;;;;;;;;;;;23.00;65.90;;;;;;5033669;28;19929;-64
2021/06/16 06:54:08;;;;;;;;;;;23.00;66.00;;;;;;5039170;28;19921;-65
2021/06/16 06:56:37;;;;;;;;;;;23.10;65.30;;;;;;5035196;28;19929;-66
2021/06/16 06:59:05;;;;;;;;;;;23.20;65.80;;;;;;5034443;28;19929;-65
2021/06/16 07:01:32;;;;;;;;;;;23.30;65.00;;;;;;5029544;28;19948;-65
2021/06/16 07:04:03;;;;;;;;;;;23.40;65.50;;;;;;5035920;28;19929;-65
2021/06/16 07:06:30;;;;;;;;;;;23.60;63.50;;;;;;5033091;28;20194;-64
2021/06/16 07:08:58;;;;;;;;;;;23.80;64.60;;;;;;5036106;28;19956;-65
2021/06/16 07:11:25;;;;;;;;;;;23.90;63.60;;;;;;5034228;28;20090;-65
2021/06/16 07:13:54;;;;;;;;;;;23.90;63.80;;;;;;5032862;28;19933;-65
2021/06/16 07:16:21;;;;;;;;;;;24.00;63.50;;;;;;5032245;28;19952;-65
2021/06/16 07:18:48;;;;;;;;;;;24.10;62.80;;;;;;5034528;28;20283;-65
2021/06/16 07:21:16;;;;;;;;;;;24.20;62.80;;;;;;5030923;28;19929;-64
2021/06/16 07:23:43;;;;;;;;;;;24.40;62.40;;;;;;5033920;28;19991;-65
2021/06/16 07:26:10;;;;;;;;;;;24.50;61.80;;;;;;5032911;28;20176;-65
2021/06/16 07:28:37;;;;;;;;;;;24.50;61.70;;;;;;5033094;28;20240;-65
2021/06/16 07:31:06;;;;;;;;;;;24.70;61.20;;;;;;5034206;28;19928;-64
2021/06/16 07:33:35;;;;;;;;;;;24.80;59.40;;;;;;5034631;28;19997;-66
2021/06/16 07:36:04;;;;;;;;;;;24.90;59.30;;;;;;5034707;28;20097;-65
2021/06/16 07:38:31;;;;;;;;;;;25.00;59.60;;;;;;5033034;28;19928;-65
2021/06/16 07:40:59;;;;;;;;;;;25.10;59.70;;;;;;5033836;28;19929;-65
2021/06/16 07:43:26;;;;;;;;;;;25.10;60.00;;;;;;5028490;28;19993;-65
2021/06/16 07:45:54;;;;;;;;;;;25.30;59.80;;;;;;5031809;28;19978;-65
2021/06/16 07:48:24;;;;;;;;;;;25.40;58.30;;;;;;5024924;28;20008;-65
2021/06/16 07:50:51;;;;;;;;;;;25.50;58.30;;;;;;5033920;28;20228;-64
2021/06/16 07:53:20;;;;;;;;;;;25.50;58.40;;;;;;5030626;28;20840;-64
2021/06/16 07:55:47;;;;;;;;;;;25.60;57.60;;;;;;5031886;28;19929;-65
2021/06/16 07:58:14;;;;;;;;;;;25.60;57.70;;;;;;5050503;28;19921;-64
2021/06/16 08:00:47;;;;;;;;;;;25.80;58.10;;;;;;5023462;28;20168;-65
2021/06/16 08:03:14;;;;;;;;;;;25.80;57.70;;;;;;5037828;28;19956;-65
2021/06/16 08:05:43;;;;;;;;;;;26.00;56.90;;;;;;5030026;28;19928;-65
2021/06/16 08:08:11;;;;;;;;;;;26.00;56.60;;;;;;5065482;28;19964;-65
2021/06/16 08:10:39;;;;;;;;;;;26.10;56.50;;;;;;5059154;28;19996;-64
2021/06/16 08:13:06;;;;;;;;;;;26.20;55.80;;;;;;5029241;28;21201;-65
2021/06/16 08:15:35;;;;;;;;;;;26.20;56.50;;;;;;5029137;28;19971;-65
2021/06/16 08:18:03;;;;;;;;;;;26.30;55.30;;;;;;5027387;28;20205;-65
2021/06/16 08:20:31;;;;;;;;;;;26.40;55.20;;;;;;5033302;28;20353;-65
2021/06/16 08:22:59;;;;;;;;;;;26.60;55.60;;;;;;5027074;28;20032;-64
2021/06/16 08:25:26;;;;;;;;;;;26.60;55.60;;;;;;5028601;28;20228;-65
2021/06/16 08:27:54;;;;;;;;;;;26.70;54.80;;;;;;5021118;28;20198;-66
2021/06/16 08:30:24;;;;;;;;;;;26.90;54.60;;;;;;5030108;28;19968;-64
2021/06/16 08:32:51;;;;;;;;;;;26.90;54.70;;;;;;5026504;28;19929;-65
2021/06/16 08:35:20;;;;;;;;;;;27.10;54.10;;;;;;5031452;28;19929;-64
2021/06/16 08:37:47;;;;;;;;;;;27.20;54.10;;;;;;5031058;28;19929;-65
2021/06/16 08:40:16;;;;;;;;;;;27.20;54.00;;;;;;5024386;28;19928;-66
2021/06/16 08:42:45;;;;;;;;;;;27.30;52.70;;;;;;5027166;28;19937;-65
2021/06/16 08:45:14;;;;;;;;;;;27.40;53.90;;;;;;5031128;28;20172;-66
2021/06/16 08:47:41;;;;;;;;;;;27.50;53.30;;;;;;5030460;28;19929;-66
2021/06/16 08:50:11;;;;;;;;;;;27.60;52.60;;;;;;5033135;28;19933;-66
2021/06/16 08:52:38;;;;;;;;;;;27.60;52.50;;;;;;5032843;28;19929;-66
2021/06/16 08:55:09;;;;;;;;;;;27.60;50.70;;;;;;5031481;28;19952;-66
2021/06/16 08:57:39;;;;;;;;;;;27.60;50.90;;;;;;5033134;28;19991;-65
2021/06/16 09:00:07;;;;;;;;;;;27.80;50.40;;;;;;5030947;28;19921;-65
2021/06/16 09:02:34;;;;;;;;;;;27.80;50.80;;;;;;5030181;28;20292;-65
2021/06/16 09:05:02;;;;;;;;;;;28.00;50.50;;;;;;5024303;28;19929;-66
2021/06/16 09:07:33;;;;;;;;;;;28.10;50.20;;;;;;5028656;28;20471;-65
2021/06/16 09:10:08;;;;;;;;;;;28.10;48.90;;;;;;5029417;28;19964;-65
2021/06/16 09:12:36;;;;;;;;;;;28.10;48.10;;;;;;5024519;28;20216;-66
2021/06/16 09:15:10;;;;;;;;;;;28.20;48.10;;;;;;5031926;28;19936;-65
2021/06/16 09:17:37;;;;;;;;;;;28.30;47.60;;;;;;5027170;28;20214;-65
2021/06/16 09:20:11;;;;;;;;;;;28.50;47.80;;;;;;5030128;28;19968;-66
2021/06/16 09:22:40;;;;;;;;;;;28.60;47.00;;;;;;5031359;28;20036;-66
2021/06/16 09:25:09;;;;;;;;;;;28.70;47.10;;;;;;5030480;28;19983;-66
2021/06/16 09:27:46;;;;;;;;;;;28.80;46.70;;;;;;5029616;28;19936;-66
2021/06/16 09:30:31;;;;;;;;;;;28.90;46.50;;;;;;5031218;28;19933;-65
2021/06/16 09:32:59;;;;;;;;;;;28.80;45.30;;;;;;5028482;28;19930;-65
2021/06/16 09:35:28;;;;;;;;;;;29.00;43.40;;;;;;5029980;28;20008;-65
2021/06/16 09:37:55;;;;;;;;;;;29.00;45.60;;;;;;5028934;28;20012;-65
2021/06/16 09:40:26;;;;;;;;;;;29.10;44.80;;;;;;5032523;28;20260;-65
2021/06/16 09:43:05;;;;;;;;;;;29.30;45.10;;;;;;5032104;28;20000;-65
2021/06/16 09:45:39;;;;;;;;;;;29.50;44.40;;;;;;5035571;28;19929;-65
2021/06/16 09:48:22;;;;;;;;;;;29.30;43.40;;;;;;5032732;28;19969;-65
2021/06/16 09:50:49;;;;;;;;;;;29.60;44.20;;;;;;5046300;28;20220;-65
2021/06/16 09:53:16;;;;;;;;;;;29.80;43.40;;;;;;5036628;28;19921;-65
2021/06/16 09:55:43;;;;;;;;;;;30.00;42.10;;;;;;5035200;28;19995;-66
2021/06/16 09:58:11;;;;;;;;;;;30.10;41.60;;;;;;5035736;28;19921;-66
2021/06/16 10:00:40;;;;;;;;;;;30.30;40.30;;;;;;5031606;28;19929;-65
2021/06/16 10:03:12;;;;;;;;;;;30.50;39.80;;;;;;5026065;28;19922;-66
2021/06/16 10:05:58;;;;;;;;;;;30.70;40.40;;;;;;5030691;28;19930;-65
2021/06/16 10:08:25;;;;;;;;;;;30.90;39.80;;;;;;5034084;28;19921;-66
2021/06/16 10:10:54;;;;;;;;;;;31.00;39.90;;;;;;5037387;28;19959;-66
2021/06/16 10:13:24;;;;;;;;;;;31.30;39.60;;;;;;5032385;28;19925;-66
2021/06/16 10:15:53;;;;;;;;;;;31.60;39.20;;;;;;5033728;28;19929;-66
2021/06/16 10:18:21;;;;;;;;;;;31.80;37.30;;;;;;5034837;28;19929;-65
2021/06/16 10:20:52;;;;;;;;;;;32.00;37.70;;;;;;5023498;28;19929;-66
2021/06/16 10:23:19;;;;;;;;;;;32.00;36.70;;;;;;5034147;28;19929;-67
2021/06/16 10:25:47;;;;;;;;;;;32.30;36.50;;;;;;5039817;28;19921;-65
2021/06/16 10:28:17;;;;;;;;;;;32.30;35.90;;;;;;5031103;28;20457;-65
2021/06/16 10:30:44;;;;;;;;;;;33.00;36.00;;;;;;5032974;28;20018;-66
2021/06/16 10:33:29;;;;;;;;;;;32.70;36.80;;;;;;5034776;28;19929;-65
2021/06/16 10:36:07;;;;;;;;;;;32.10;36.20;;;;;;5033969;28;19935;-66
2021/06/16 10:38:34;;;;;;;;;;;33.30;35.20;;;;;;5036388;28;19921;-65
2021/06/16 10:41:09;;;;;;;;;;;34.00;34.40;;;;;;5036674;28;19943;-67
2021/06/16 10:43:43;;;;;;;;;;;35.30;32.40;;;;;;5039434;28;19935;-66
2021/06/16 10:46:16;;;;;;;;;;;36.10;29.50;;;;;;5060216;28;19961;-65
2021/06/16 10:48:55;;;;;;;;;;;36.50;29.50;;;;;;5039611;28;19925;-66
2021/06/16 10:51:31;;;;;;;;;;;36.60;29.70;;;;;;5037721;28;19937;-66
2021/06/16 10:54:15;;;;;;;;;;;34.70;31.80;;;;;;5036227;28;19933;-65
2021/06/16 10:56:44;;;;;;;;;;;33.10;32.50;;;;;;5037852;28;19929;-66
2021/06/16 10:59:12;;;;;;;;;;;35.30;29.70;;;;;;5035455;28;20306;-67
2021/06/16 11:01:49;;;;;;;;;;;37.00;29.40;;;;;;5039638;28;19995;-66
2021/06/16 11:04:30;;;;;;;;;;;37.40;26.30;;;;;;5040896;28;19929;-67
2021/06/16 11:07:00;;;;;;;;;;;38.30;27.50;;;;;;5034943;28;19940;-66
2021/06/16 11:09:50;;;;;;;;;;;39.00;26.30;;;;;;5036417;28;19921;-65
2021/06/16 11:12:27;;;;;;;;;;;38.50;25.70;;;;;;5034375;28;19980;-66
2021/06/16 11:14:55;;;;;;;;;;;38.10;25.90;;;;;;5041525;28;20027;-71
2021/06/16 11:17:46;;;;;;;;;;;39.30;25.60;;;;;;5035306;28;19929;-66
2021/06/16 11:20:21;;;;;;;;;;;39.00;24.80;;;;;;5037697;28;19988;-66
2021/06/16 11:22:49;;;;;;;;;;;40.50;23.70;;;;;;5038433;28;19936;-67
2021/06/16 11:25:28;;;;;;;;;;;40.10;23.70;;;;;;5037846;28;19921;-65
2021/06/16 11:28:15;;;;;;;;;;;40.10;22.70;;;;;;5028749;28;20187;-65
2021/06/16 11:30:47;;;;;;;;;;;37.10;25.30;;;;;;5035323;28;19933;-66
2021/06/16 11:33:30;;;;;;;;;;;36.00;27.00;;;;;;5065236;28;19968;-67
2021/06/16 11:36:01;;;;;;;;;;;35.20;30.00;;;;;;5036349;28;19952;-66
2021/06/16 11:38:32;;;;;;;;;;;37.40;27.50;;;;;;5035714;28;19921;-66
2021/06/16 11:41:03;;;;;;;;;;;38.50;25.20;;;;;;5034299;28;19933;-65
2021/06/16 11:43:31;;;;;;;;;;;39.20;23.60;;;;;;5035273;28;19940;-66
2021/06/16 11:45:59;;;;;;;;;;;38.00;25.70;;;;;;5066965;28;21129;-65
2021/06/16 11:48:29;;;;;;;;;;;40.00;24.10;;;;;;5026023;28;19930;-64
2021/06/16 11:50:56;;;;;;;;;;;40.20;22.70;;;;;;5036153;28;19921;-66
2021/06/16 11:53:29;;;;;;;;;;;38.80;24.30;;;;;;5034734;28;19921;-65
2021/06/16 11:56:00;;;;;;;;;;;37.90;26.00;;;;;;5039171;28;19921;-65
2021/06/16 11:58:31;;;;;;;;;;;37.80;25.40;;;;;;5034167;28;20129;-65
2021/06/16 12:01:05;;;;;;;;;;;36.20;27.40;;;;;;5034645;28;19933;-66
2021/06/16 12:03:35;;;;;;;;;;;36.40;26.20;;;;;;5036583;28;19929;-67
2021/06/16 12:06:10;;;;;;;;;;;37.80;24.70;;;;;;5033299;28;19929;-65
2021/06/16 12:08:40;;;;;;;;;;;39.00;24.00;;;;;;5034935;28;20016;-65
2021/06/16 12:11:17;;;;;;;;;;;39.50;22.80;;;;;;5034340;28;19929;-65
2021/06/16 12:13:54;;;;;;;;;;;40.40;23.00;;;;;;5035666;28;19959;-66
2021/06/16 12:16:30;;;;;;;;;;;41.70;22.10;;;;;;5038773;28;20380;-66
2021/06/16 12:19:12;;;;;;;;;;;41.30;21.00;;;;;;5037894;28;19929;-65
2021/06/16 12:21:40;;;;;;;;;;;39.70;22.70;;;;;;5039442;28;19928;-66
2021/06/16 12:24:18;;;;;;;;;;;39.60;24.00;;;;;;5034871;28;19925;-66
2021/06/16 12:26:56;;;;;;;;;;;41.50;21.60;;;;;;5035392;28;19937;-66
2021/06/16 12:29:24;;;;;;;;;;;39.80;23.30;;;;;;5032859;28;20193;-66
2021/06/16 12:31:53;;;;;;;;;;;38.10;25.10;;;;;;5033317;28;19929;-65
2021/06/16 12:34:29;;;;;;;;;;;35.60;27.40;;;;;;5031538;28;19952;-66
2021/06/16 12:37:05;;;;;;;;;;;34.10;29.30;;;;;;5034973;28;20208;-65
2021/06/16 12:39:36;;;;;;;;;;;34.60;29.90;;;;;;5036520;28;20271;-66
2021/06/16 12:42:07;;;;;;;;;;;37.40;26.30;;;;;;5030356;28;20227;-66
2021/06/16 12:44:44;;;;;;;;;;;36.00;27.20;;;;;;5038046;28;19929;-63
2021/06/16 12:47:13;;;;;;;;;;;34.90;29.00;;;;;;5034618;28;19929;-65
2021/06/16 12:49:49;;;;;;;;;;;35.50;28.30;;;;;;5034118;28;20331;-65
2021/06/16 12:52:28;;;;;;;;;;;35.50;28.30;;;;;;5037021;28;20043;-65
2021/06/16 12:55:07;;;;;;;;;;;36.60;26.50;;;;;;5033134;28;19939;-65
2021/06/16 12:57:41;;;;;;;;;;;35.60;27.70;;;;;;5034766;28;19929;-66
2021/06/16 13:00:11;;;;;;;;;;;36.20;27.10;;;;;;5032546;28;19929;-66
2021/06/16 13:02:39;;;;;;;;;;;38.20;25.30;;;;;;5065106;28;19929;-66
2021/06/16 13:05:07;;;;;;;;;;;40.50;23.30;;;;;;5033983;28;19929;-65
2021/06/16 13:07:40;;;;;;;;;;;41.30;22.90;;;;;;5033730;28;20382;-67
2021/06/16 13:10:11;;;;;;;;;;;42.10;21.20;;;;;;5036835;28;19929;-66
2021/06/16 13:12:38;;;;;;;;;;;41.80;20.80;;;;;;5039362;28;19993;-66
2021/06/16 13:15:07;;;;;;;;;;;42.10;21.20;;;;;;5037932;28;19929;-66
2021/06/16 13:17:45;;;;;;;;;;;43.80;20.40;;;;;;5038091;28;19929;-65
2021/06/16 13:20:12;;;;;;;;;;;42.50;20.60;;;;;;5038651;28;20051;-65
2021/06/16 13:22:43;;;;;;;;;;;42.20;20.60;;;;;;5034229;28;19936;-66
2021/06/16 13:25:22;;;;;;;;;;;43.80;20.00;;;;;;5038659;28;20086;-65
2021/06/16 13:27:53;;;;;;;;;;;43.00;20.10;;;;;;5039701;28;20220;-66
2021/06/16 13:30:28;;;;;;;;;;;42.40;20.00;;;;;;5037132;28;19933;-64
2021/06/16 13:32:56;;;;;;;;;;;43.40;20.40;;;;;;5036311;28;19932;-66
2021/06/16 13:35:23;;;;;;;;;;;43.50;19.70;;;;;;5028000;28;19979;-66
2021/06/16 13:37:50;;;;;;;;;;;43.00;20.80;;;;;;5039647;28;19933;-67
2021/06/16 13:40:19;;;;;;;;;;;42.30;21.40;;;;;;5035616;28;19966;-65
2021/06/16 13:42:48;;;;;;;;;;;43.20;19.80;;;;;;5035069;28;20230;-66
2021/06/16 13:45:15;;;;;;;;;;;42.90;19.70;;;;;;5034472;28;19971;-66
2021/06/16 13:47:42;;;;;;;;;;;44.30;19.10;;;;;;5031181;28;19928;-66
2021/06/16 13:50:10;;;;;;;;;;;44.10;19.00;;;;;;5033637;28;19945;-65
2021/06/16 13:52:37;;;;;;;;;;;43.50;19.80;;;;;;5036200;28;19921;-65
2021/06/16 13:55:06;;;;;;;;;;;41.00;21.80;;;;;;5031928;28;20091;-66
2021/06/16 13:57:34;;;;;;;;;;;40.50;22.50;;;;;;5029269;28;20212;-66
2021/06/16 14:00:06;;;;;;;;;;;40.00;23.00;;;;;;5031408;28;19925;-66
2021/06/16 14:02:43;;;;;;;;;;;41.40;21.70;;;;;;5035054;28;19968;-66
2021/06/16 14:05:11;;;;;;;;;;;42.20;21.60;;;;;;5032681;28;19929;-67
2021/06/16 14:07:38;;;;;;;;;;;43.40;20.50;;;;;;5031663;28;19929;-66
2021/06/16 14:10:07;;;;;;;;;;;44.50;18.80;;;;;;5033307;28;19937;-67
2021/06/16 14:12:36;;;;;;;;;;;45.00;19.20;;;;;;5037075;28;20157;-66
2021/06/16 14:15:05;;;;;;;;;;;44.70;19.20;;;;;;5035640;28;19928;-65
2021/06/16 14:17:32;;;;;;;;;;;42.90;20.70;;;;;;5068252;28;19929;-64
2021/06/16 14:20:02;;;;;;;;;;;41.40;21.50;;;;;;5032644;28;19929;-66
2021/06/16 14:22:29;;;;;;;;;;;41.80;22.00;;;;;;5035011;28;20015;-66
2021/06/16 14:24:59;;;;;;;;;;;41.50;21.60;;;;;;5030580;28;19921;-65
2021/06/16 14:27:28;;;;;;;;;;;42.30;20.90;;;;;;5035072;28;20251;-66
2021/06/16 14:29:59;;;;;;;;;;;41.80;21.10;;;;;;5032292;28;19933;-67